createdAt,value
2022-12-17T00:02:11.181Z,42.05
2022-12-17T00:05:02.885Z,49.75
2022-12-17T00:07:48.136Z,40.13
2022-12-17T00:10:39.885Z,46.58
2022-12-17T00:13:43.978Z,40.05
2022-12-17T00:16:54.917Z,48.15
2022-12-17T00:19:47.357Z,45.53
2022-12-17T00:22:38.925Z,39.15
2022-12-17T00:25:30.921Z,41.30
2022-12-17T00:28:16.574Z,39.17
2022-12-17T00:31:09.015Z,37.15
2022-12-17T00:34:02.973Z,40.13
2022-12-17T00:36:55.002Z,44.28
2022-12-17T00:42:43.012Z,44.70
2022-12-17T00:45:32.952Z,47.50
2022-12-17T00:51:14.057Z,40.58
2022-12-17T00:54:06.086Z,42.90
2022-12-17T00:56:59.085Z,44.35
2022-12-17T00:59:50.977Z,45.83
2022-12-17T01:02:44.122Z,46.03
2022-12-17T01:05:38.016Z,48.17
2022-12-17T01:08:31.739Z,53.08
2022-12-17T01:11:33.082Z,47.63
2022-12-17T01:14:24.963Z,46.15
2022-12-17T01:17:16.995Z,51.50
2022-12-17T01:20:12.050Z,53.33
2022-12-17T01:23:06.205Z,48.25
2022-12-17T01:25:51.685Z,46.80
2022-12-17T01:28:49.013Z,50.50
2022-12-17T01:31:35.475Z,50.78
2022-12-17T01:34:27.994Z,49.15
2022-12-17T01:37:16.026Z,49.63
2022-12-17T01:40:08.031Z,49.05
2022-12-17T01:43:07.777Z,48.97
2022-12-17T01:46:08.268Z,47.55
2022-12-17T01:49:00.372Z,46.92
2022-12-17T01:52:02.041Z,32.38
2022-12-17T01:54:57.114Z,47.53
2022-12-17T01:57:51.206Z,56.30
2022-12-17T02:00:44.206Z,46.17
2022-12-17T02:03:43.208Z,44.47
2022-12-17T02:06:53.154Z,52.17
2022-12-17T02:09:53.573Z,45.00
2022-12-17T02:13:13.206Z,46.47
2022-12-17T02:16:10.146Z,44.83
2022-12-17T02:19:21.112Z,48.13
2022-12-17T02:22:13.752Z,47.60
2022-12-17T02:25:17.213Z,46.45
2022-12-17T02:28:03.264Z,38.10
2022-12-17T02:30:57.113Z,50.58
2022-12-17T02:33:43.153Z,50.67
2022-12-17T02:36:35.187Z,52.83
2022-12-17T02:39:27.061Z,50.25
2022-12-17T02:42:23.177Z,46.67
2022-12-17T02:45:10.732Z,56.33
2022-12-17T02:48:10.177Z,51.17
2022-12-17T02:50:57.255Z,49.83
2022-12-17T02:53:56.078Z,49.40
2022-12-17T02:56:45.037Z,48.08
2022-12-17T02:59:37.120Z,51.17
2022-12-17T03:02:23.294Z,47.30
2022-12-17T03:05:42.947Z,47.47
2022-12-17T03:08:27.977Z,46.60
2022-12-17T03:11:20.217Z,46.55
2022-12-17T03:14:14.212Z,53.08
2022-12-17T03:17:06.269Z,49.65
2022-12-17T03:19:58.089Z,50.45
2022-12-17T03:22:46.879Z,53.08
2022-12-17T03:25:40.193Z,59.33
2022-12-17T03:31:19.263Z,49.90
2022-12-17T03:34:12.177Z,51.38
2022-12-17T03:39:56.200Z,54.40
2022-12-17T03:42:43.129Z,51.83
2022-12-17T03:45:36.310Z,52.67
2022-12-17T03:48:33.350Z,49.10
2022-12-17T03:51:26.173Z,44.17
2022-12-17T03:54:21.310Z,42.47
2022-12-17T03:57:20.182Z,42.85
2022-12-17T04:00:05.656Z,47.67
2022-12-17T04:02:57.331Z,52.63
2022-12-17T04:05:42.841Z,52.67
2022-12-17T04:08:35.272Z,50.45
2022-12-17T04:11:27.186Z,53.80
2022-12-17T04:14:12.656Z,56.25
2022-12-17T04:17:11.176Z,55.47
2022-12-17T04:19:56.711Z,48.53
2022-12-17T04:23:03.317Z,48.88
2022-12-17T04:25:54.721Z,55.83
2022-12-17T04:28:46.376Z,52.33
2022-12-17T04:31:31.745Z,55.93
2022-12-17T04:34:44.345Z,53.80
2022-12-17T04:37:33.410Z,59.40
2022-12-17T04:40:26.236Z,61.33
2022-12-17T04:43:18.278Z,57.58
2022-12-17T04:46:08.579Z,55.77
2022-12-17T04:49:00.345Z,49.08
2022-12-17T04:51:46.415Z,62.10
2022-12-17T04:54:45.282Z,55.58
2022-12-17T05:00:23.338Z,47.15
2022-12-17T05:03:09.189Z,50.90
2022-12-17T05:06:08.320Z,47.92
2022-12-17T05:08:58.765Z,46.90
2022-12-17T05:11:51.323Z,49.40
2022-12-17T05:17:30.105Z,52.83
2022-12-17T05:20:22.339Z,50.33
2022-12-17T05:23:14.306Z,55.90
2022-12-17T05:26:08.513Z,56.72
2022-12-17T05:29:03.441Z,56.70
2022-12-17T05:31:48.961Z,52.95
2022-12-17T05:34:41.365Z,55.75
2022-12-17T05:37:26.779Z,60.63
2022-12-17T05:40:20.751Z,58.03
2022-12-17T05:43:19.407Z,57.28
2022-12-17T05:46:18.370Z,52.42
2022-12-17T05:51:56.425Z,50.33
2022-12-17T05:54:42.003Z,52.55
2022-12-17T05:57:33.417Z,51.35
2022-12-17T06:00:19.249Z,47.78
2022-12-17T06:03:11.542Z,53.25
2022-12-17T06:06:03.376Z,46.50
2022-12-17T06:08:51.917Z,58.50
2022-12-17T06:11:44.366Z,51.72
2022-12-17T06:14:29.613Z,57.25
2022-12-17T06:17:21.466Z,61.30
2022-12-17T06:20:07.161Z,62.30
2022-12-17T06:22:59.443Z,58.08
2022-12-17T06:25:45.364Z,57.38
2022-12-17T06:28:37.466Z,58.45
2022-12-17T06:31:22.913Z,61.88
2022-12-17T06:34:14.504Z,61.55
2022-12-17T06:36:59.854Z,52.10
2022-12-17T06:39:55.535Z,62.97
2022-12-17T06:42:43.584Z,57.13
2022-12-17T06:45:36.690Z,59.63
2022-12-17T06:48:23.452Z,54.35
2022-12-17T06:51:15.488Z,56.20
2022-12-17T06:54:01.704Z,59.83
2022-12-17T06:56:55.768Z,52.90
2022-12-17T06:59:41.054Z,60.03
2022-12-17T07:02:38.587Z,69.20
2022-12-17T07:05:24.671Z,67.10
2022-12-17T07:08:25.609Z,59.53
2022-12-17T07:11:10.865Z,71.82
2022-12-17T07:14:02.529Z,67.82
2022-12-17T07:16:48.243Z,66.80
2022-12-17T07:19:40.540Z,62.95
2022-12-17T07:22:26.233Z,53.55
2022-12-17T07:25:21.501Z,55.92
2022-12-17T07:28:20.699Z,62.87
2022-12-17T07:31:05.778Z,57.00
2022-12-17T07:33:58.514Z,55.90
2022-12-17T07:36:43.751Z,61.88
2022-12-17T07:39:39.558Z,67.70
2022-12-17T07:42:24.883Z,76.47
2022-12-17T07:45:30.602Z,75.47
2022-12-17T07:48:18.191Z,73.68
2022-12-17T07:51:14.581Z,76.30
2022-12-17T07:54:00.496Z,75.00
2022-12-17T08:01:21.699Z,80.00
2022-12-17T08:04:14.592Z,78.22
2022-12-17T08:09:58.660Z,73.40
2022-12-17T08:13:03.711Z,69.85
2022-12-17T08:16:12.711Z,83.75
2022-12-17T08:18:58.695Z,80.28
2022-12-17T08:21:50.646Z,76.07
2022-12-17T08:24:42.623Z,74.80
2022-12-17T08:27:33.701Z,66.57
2022-12-17T08:30:25.736Z,64.78
2022-12-17T08:33:23.285Z,70.88
2022-12-17T08:36:22.707Z,62.63
2022-12-17T08:39:14.733Z,62.10
2022-12-17T08:42:04.263Z,61.13
2022-12-17T08:44:57.187Z,65.45
2022-12-17T08:47:49.611Z,66.18
2022-12-17T08:50:41.643Z,70.97
2022-12-17T08:53:31.983Z,78.18
2022-12-17T08:56:33.702Z,64.25
2022-12-17T08:59:25.680Z,65.60
2022-12-17T09:02:17.987Z,69.03
2022-12-17T09:05:10.692Z,70.55
2022-12-17T09:07:56.075Z,60.00
2022-12-17T09:10:47.629Z,62.67
2022-12-17T09:13:33.475Z,60.63
2022-12-17T09:16:25.753Z,62.80
2022-12-17T09:19:11.315Z,62.13
2022-12-17T09:22:03.779Z,74.63
2022-12-17T09:24:49.240Z,76.18
2022-12-17T09:27:42.860Z,68.03
2022-12-17T09:33:20.734Z,68.00
2022-12-17T09:36:06.128Z,60.65
2022-12-17T09:39:12.725Z,64.90
2022-12-17T09:42:32.143Z,65.18
2022-12-17T09:45:37.770Z,65.43
2022-12-17T09:48:32.877Z,63.17
2022-12-17T09:51:24.776Z,64.87
2022-12-17T09:54:12.497Z,59.00
2022-12-17T09:57:06.804Z,65.65
2022-12-17T10:00:00.754Z,70.10
2022-12-17T10:02:56.888Z,63.78
2022-12-17T10:05:51.159Z,64.18
2022-12-17T10:08:46.773Z,76.40
2022-12-17T10:11:41.674Z,68.43
2022-12-17T10:14:42.717Z,67.53
2022-12-17T10:17:49.781Z,46.67
2022-12-17T10:20:39.770Z,73.10
2022-12-17T10:23:31.823Z,68.38
2022-12-17T10:26:31.847Z,74.70
2022-12-17T10:29:47.023Z,79.78
2022-12-17T10:32:51.760Z,73.97
2022-12-17T10:35:44.189Z,73.32
2022-12-17T10:38:56.917Z,66.28
2022-12-17T10:41:47.988Z,69.88
2022-12-17T10:45:07.526Z,68.80
2022-12-17T10:47:59.847Z,77.32
2022-12-17T10:50:45.285Z,82.47
2022-12-17T10:53:47.825Z,72.50
2022-12-17T10:56:49.886Z,73.88
2022-12-17T10:59:58.816Z,67.18
2022-12-17T11:02:50.689Z,73.38
2022-12-17T11:06:00.888Z,68.65
2022-12-17T11:08:49.867Z,61.78
2022-12-17T11:11:41.945Z,67.18
2022-12-17T11:14:33.227Z,81.72
2022-12-17T11:17:29.854Z,81.05
2022-12-17T11:20:30.962Z,69.70
2022-12-17T11:26:20.872Z,77.40
2022-12-17T11:29:12.897Z,73.67
2022-12-17T11:32:17.865Z,74.95
2022-12-17T11:35:22.586Z,78.40
2022-12-17T11:38:49.845Z,64.53
2022-12-17T11:41:59.915Z,65.82
2022-12-17T11:45:12.867Z,70.00
2022-12-17T11:48:27.875Z,77.57
2022-12-17T11:51:25.015Z,65.93
2022-12-17T11:54:43.937Z,68.90
2022-12-17T11:58:13.913Z,94.68
2022-12-17T12:01:45.052Z,84.00
2022-12-17T12:04:48.967Z,80.00
2022-12-17T12:07:55.929Z,77.90
2022-12-17T12:11:05.000Z,76.80
2022-12-17T12:14:23.104Z,82.75
2022-12-17T12:17:27.042Z,80.22
2022-12-17T12:20:25.087Z,79.78
2022-12-17T12:23:25.215Z,83.57
2022-12-17T12:26:49.988Z,78.35
2022-12-17T12:29:57.628Z,67.30
2022-12-17T12:33:10.217Z,73.32
2022-12-17T12:36:02.966Z,77.70
2022-12-17T12:38:55.992Z,75.25
2022-12-17T12:42:07.981Z,80.07
2022-12-17T12:45:19.986Z,86.45
2022-12-17T12:48:30.069Z,82.43
2022-12-17T12:51:46.090Z,79.90
2022-12-17T12:54:46.960Z,76.65
2022-12-17T12:58:06.083Z,71.95
2022-12-17T13:01:15.127Z,73.50
2022-12-17T13:04:12.061Z,73.55
2022-12-17T13:07:03.015Z,81.10
2022-12-17T13:15:38.098Z,70.93
2022-12-17T13:18:44.058Z,70.00
2022-12-17T13:21:20.056Z,69.05
2022-12-17T13:23:56.150Z,71.13
2022-12-17T13:26:39.870Z,69.57
2022-12-17T13:29:39.105Z,71.53
2022-12-17T13:32:15.453Z,65.32
2022-12-17T13:35:13.145Z,65.63
2022-12-17T13:38:04.066Z,66.15
2022-12-17T13:40:46.500Z,71.78
2022-12-17T13:43:26.050Z,75.68
2022-12-17T13:46:03.295Z,68.63
2022-12-17T13:48:30.396Z,61.03
2022-12-17T13:51:12.062Z,71.95
2022-12-17T13:53:45.076Z,71.78
2022-12-17T13:56:12.357Z,71.57
2022-12-17T13:58:50.710Z,65.88
2022-12-17T14:01:18.084Z,57.80
2022-12-17T14:04:08.442Z,69.70
2022-12-17T14:06:44.207Z,65.47
2022-12-17T14:09:26.523Z,68.40
2022-12-17T14:12:11.900Z,67.65
2022-12-17T14:14:51.209Z,70.72
2022-12-17T14:20:14.229Z,70.23
2022-12-17T14:22:51.109Z,68.85
2022-12-17T14:25:31.086Z,71.95
2022-12-17T14:28:06.658Z,68.03
2022-12-17T14:31:17.235Z,64.82
2022-12-17T14:33:33.201Z,70.53
2022-12-17T14:36:12.249Z,60.78
2022-12-17T14:38:42.019Z,68.55
2022-12-17T14:41:39.389Z,69.00
2022-12-17T14:44:29.211Z,66.72
2022-12-17T14:47:26.370Z,62.03
2022-12-17T14:50:00.759Z,53.92
2022-12-17T14:52:55.139Z,54.80
2022-12-17T14:56:39.042Z,61.50
2022-12-17T15:00:24.511Z,55.50
2022-12-17T15:02:55.224Z,57.55
2022-12-17T15:05:35.158Z,58.65
2022-12-17T15:08:19.331Z,57.38
2022-12-17T15:10:46.239Z,61.30
2022-12-17T15:13:13.344Z,62.75
2022-12-17T15:15:47.208Z,58.42
2022-12-17T15:18:14.638Z,60.08
2022-12-17T15:20:48.185Z,55.65
2022-12-17T15:23:27.186Z,55.03
2022-12-17T15:25:54.670Z,62.90
2022-12-17T15:28:22.258Z,64.32
2022-12-17T15:30:56.343Z,61.10
2022-12-17T15:33:24.929Z,70.35
2022-12-17T15:35:58.404Z,66.75
2022-12-17T15:38:25.216Z,71.30
2022-12-17T15:40:52.192Z,63.95
2022-12-17T15:43:26.251Z,55.35
2022-12-17T15:45:59.287Z,60.13
2022-12-17T15:48:33.217Z,58.08
2022-12-17T15:51:00.074Z,53.47
2022-12-17T15:53:34.553Z,63.47
2022-12-17T15:56:18.779Z,63.08
2022-12-17T15:58:52.359Z,62.22
2022-12-17T16:01:19.933Z,72.65
2022-12-17T16:03:47.081Z,61.80
2022-12-17T16:06:20.599Z,61.47
2022-12-17T16:08:50.783Z,63.90
2022-12-17T16:11:17.736Z,63.88
2022-12-17T16:13:51.223Z,63.40
2022-12-17T16:16:18.037Z,64.63
2022-12-17T16:18:51.345Z,64.72
2022-12-17T16:21:25.280Z,61.15
2022-12-17T16:23:52.185Z,68.88
2022-12-17T16:26:25.325Z,63.85
2022-12-17T16:28:52.163Z,65.78
2022-12-17T16:31:26.442Z,65.55
2022-12-17T16:33:55.885Z,65.30
2022-12-17T16:36:22.830Z,65.03
2022-12-17T16:38:59.496Z,62.45
2022-12-17T16:41:33.392Z,68.32
2022-12-17T16:44:02.097Z,62.17
2022-12-17T16:46:37.429Z,66.72
2022-12-17T16:49:06.032Z,58.45
2022-12-17T16:51:39.297Z,57.70
2022-12-17T16:54:13.721Z,64.28
2022-12-17T16:56:47.356Z,61.67
2022-12-17T16:59:19.021Z,58.22
2022-12-17T17:01:55.472Z,62.67
2022-12-17T17:04:23.509Z,55.50
2022-12-17T17:07:03.351Z,59.70
2022-12-17T17:09:31.282Z,60.80
2022-12-17T17:12:09.332Z,58.17
2022-12-17T17:14:36.354Z,66.75
2022-12-17T17:17:10.393Z,64.80
2022-12-17T17:19:37.198Z,59.60
2022-12-17T17:22:10.369Z,63.65
2022-12-17T17:24:37.327Z,61.40
2022-12-17T17:27:15.537Z,63.25
2022-12-17T17:29:42.554Z,58.42
2022-12-17T17:32:22.661Z,67.13
2022-12-17T17:34:49.469Z,66.60
2022-12-17T17:37:16.931Z,59.47
2022-12-17T17:39:50.533Z,61.15
2022-12-17T17:42:17.273Z,60.40
2022-12-17T17:44:44.108Z,69.63
2022-12-17T17:47:17.411Z,60.75
2022-12-17T17:49:44.271Z,60.33
2022-12-17T17:52:17.492Z,61.65
2022-12-17T17:54:45.031Z,59.13
2022-12-17T17:57:20.678Z,68.63
2022-12-17T17:59:47.600Z,54.92
2022-12-17T18:02:14.796Z,69.22
2022-12-17T18:04:48.646Z,64.38
2022-12-17T18:07:28.224Z,70.57
2022-12-17T18:10:07.709Z,62.10
2022-12-17T18:12:53.011Z,61.75
2022-12-17T18:15:26.568Z,67.35
2022-12-17T18:17:53.796Z,59.88
2022-12-17T18:20:20.755Z,61.55
2022-12-17T18:22:55.496Z,58.55
2022-12-17T18:25:22.406Z,54.58
2022-12-17T18:27:53.242Z,56.78
2022-12-17T18:30:27.647Z,56.05
2022-12-17T18:32:55.190Z,61.90
2022-12-17T18:35:22.099Z,71.32
2022-12-17T18:37:55.581Z,61.17
2022-12-17T18:40:33.252Z,66.50
2022-12-17T18:43:19.014Z,68.47
2022-12-17T18:46:00.705Z,61.75
2022-12-17T18:48:27.507Z,71.32
2022-12-17T18:50:54.869Z,61.22
2022-12-17T18:53:31.813Z,63.63
2022-12-17T18:55:58.622Z,67.43
2022-12-17T18:58:25.829Z,62.13
2022-12-17T19:01:06.778Z,63.05
2022-12-17T19:03:33.681Z,67.78
2022-12-17T19:06:05.765Z,54.40
2022-12-17T19:08:41.522Z,66.20
2022-12-17T19:11:09.861Z,65.72
2022-12-17T19:13:43.526Z,75.93
2022-12-17T19:16:16.854Z,70.60
2022-12-17T19:18:50.641Z,63.90
2022-12-17T19:21:17.496Z,65.78
2022-12-17T19:23:50.828Z,64.93
2022-12-17T19:26:21.219Z,66.93
2022-12-17T19:28:50.327Z,65.03
2022-12-17T19:31:25.668Z,66.65
2022-12-17T19:33:57.383Z,64.50
2022-12-17T19:36:32.834Z,61.55
2022-12-17T19:39:01.848Z,59.83
2022-12-17T19:41:31.919Z,69.60
2022-12-17T19:44:08.861Z,64.95
2022-12-17T19:46:36.620Z,66.47
2022-12-17T19:49:05.208Z,55.25
2022-12-17T19:51:41.636Z,65.47
2022-12-17T19:54:09.373Z,50.90
2022-12-17T19:56:43.626Z,69.22
2022-12-17T19:59:30.034Z,68.35
2022-12-17T20:02:19.973Z,72.90
2022-12-17T20:04:47.135Z,71.35
2022-12-17T20:07:14.027Z,71.07
2022-12-17T20:09:47.671Z,65.35
2022-12-17T20:12:14.780Z,61.92
2022-12-17T20:14:47.780Z,85.57
2022-12-17T20:17:16.168Z,68.68
2022-12-17T20:19:43.633Z,78.10
2022-12-17T20:22:17.651Z,74.13
2022-12-17T20:24:50.818Z,54.03
2022-12-17T20:27:24.469Z,69.93
2022-12-17T20:29:59.683Z,79.47
2022-12-17T20:32:26.692Z,70.97
2022-12-17T20:35:06.650Z,75.22
2022-12-17T20:37:33.534Z,73.38
2022-12-17T20:40:00.361Z,78.28
2022-12-17T20:42:43.640Z,76.80
2022-12-17T20:47:52.592Z,71.03
2022-12-17T20:50:19.631Z,76.15
2022-12-17T20:52:53.615Z,71.82
2022-12-17T20:55:20.671Z,85.07
2022-12-17T20:57:47.712Z,83.82
2022-12-17T21:00:21.853Z,66.68
2022-12-17T21:02:48.965Z,82.00
2022-12-17T21:05:17.953Z,83.03
2022-12-17T21:07:51.707Z,79.97
2022-12-17T21:10:30.857Z,79.63
2022-12-17T21:13:16.620Z,73.43
2022-12-17T21:15:56.761Z,74.35
2022-12-17T21:18:27.993Z,70.10
2022-12-17T21:21:05.919Z,66.78
2022-12-17T21:23:34.535Z,63.25
2022-12-17T21:26:17.725Z,68.55
2022-12-17T21:28:53.770Z,63.55
2022-12-17T21:31:30.863Z,59.42
2022-12-17T21:34:00.365Z,69.65
2022-12-17T21:36:29.647Z,68.28
2022-12-17T21:39:09.196Z,69.20
2022-12-17T21:41:38.887Z,68.57
2022-12-17T21:44:23.192Z,59.10
2022-12-17T21:46:56.865Z,53.90
2022-12-17T21:49:30.795Z,60.50
2022-12-17T21:51:59.437Z,66.63
2022-12-17T21:54:32.807Z,60.25
2022-12-17T21:57:01.388Z,67.18
2022-12-17T21:59:35.248Z,65.22
2022-12-17T22:02:11.154Z,66.00
2022-12-17T22:04:47.936Z,64.22
2022-12-17T22:07:32.903Z,55.75
2022-12-17T22:10:17.516Z,63.45
2022-12-17T22:13:08.006Z,51.88
2022-12-17T22:15:48.042Z,53.30
2022-12-17T22:18:22.449Z,62.72
2022-12-17T22:21:06.857Z,58.70
2022-12-17T22:23:36.085Z,64.10
2022-12-17T22:26:16.838Z,56.38
2022-12-17T22:28:54.808Z,58.47
2022-12-17T22:31:47.815Z,63.85
2022-12-17T22:34:53.913Z,60.38
2022-12-17T22:38:41.184Z,56.47
2022-12-17T22:44:28.578Z,60.95
2022-12-17T22:44:49.260Z,58.38
2022-12-17T22:46:08.910Z,61.05
2022-12-17T22:48:41.834Z,59.63
2022-12-17T22:51:23.611Z,56.83
2022-12-17T22:54:05.691Z,55.60
2022-12-17T22:57:15.927Z,53.67
2022-12-17T22:59:27.902Z,53.17
2022-12-17T23:02:01.371Z,51.00
2022-12-17T23:04:32.052Z,51.25
2022-12-17T23:06:59.490Z,54.13
2022-12-17T23:09:32.877Z,61.30
2022-12-17T23:12:26.934Z,57.10
2022-12-17T23:14:53.857Z,58.55
2022-12-17T23:17:28.100Z,45.90
2022-12-17T23:19:57.624Z,62.47
2022-12-17T23:22:31.357Z,60.22
2022-12-17T23:24:58.142Z,55.33
2022-12-17T23:27:25.185Z,57.47
2022-12-17T23:29:58.989Z,61.95
2022-12-17T23:32:26.020Z,57.85
2022-12-17T23:34:58.882Z,53.15
2022-12-17T23:37:25.912Z,63.97
2022-12-17T23:39:58.943Z,48.45
2022-12-17T23:42:25.846Z,52.78
2022-12-17T23:44:59.035Z,60.78
2022-12-17T23:47:32.964Z,53.40
2022-12-17T23:49:59.835Z,49.67
2022-12-17T23:52:26.686Z,50.70
2022-12-17T23:55:06.975Z,55.90
2022-12-17T23:57:33.791Z,55.97
